EW3545 Weather Reports


Display with metric or nautical units.
time (UTC)temp
F
wind
direction
speed
MPH
gust
MPH
rain 1hr
in
rain 24hr
in
rain mn
in
humidity
%
barometer
mb
20190223153132 3 302 0.0 1.0 0.00 0.00 0.00 88 1020.9
20190223151704 1 302 0.0 0.0 0.00 0.00 0.00 87 1020.7
20190223150103 0 302 0.0 1.0 0.00 0.00 0.00 85 1020.7
20190223144542 0 291 0.0 0.0 0.00 0.00 0.00 87 1020.7
20190223143027 0 295 0.0 0.0 0.00 0.00 0.00 86 1020.5
20190223141604 0 274 0.0 0.0 0.00 0.00 0.00 86 1020.6
20190223140022 0 275 0.0 0.0 0.00 0.00 0.00 86 1019.9
20190223134510 1 274 0.0 0.0 0.00 0.00 0.00 87 1019.4
20190223133007 1 294 0.0 0.0 0.00 0.00 0.00 87 1018.9
20190223131724 1 294 0.0 0.0 0.00 0.00 0.00 86 1018.9
20190223130154 2 302 0.0 0.0 0.00 0.00 0.00 87 1018.9
20190223124634 2 302 0.0 1.0 0.00 0.00 0.00 87 1019.1
20190223123130 2 308 0.0 0.0 0.00 0.00 0.00 87 1019.2
20190223121705 2 289 0.0 0.0 0.00 0.00 0.00 87 1019.3
20190223120058 2 304 0.0 0.0 0.00 0.00 0.00 88 1019.2
20190223114604 2 302 0.0 2.0 0.00 0.00 0.00 88 1018.9
20190223113108 1 298 0.0 1.0 0.00 0.00 0.00 86 1019.0
20190223111532 2 290 0.0 1.0 0.00 0.00 0.00 87 1019.0
20190223110043 2 260 0.0 0.0 0.00 0.00 0.00 87 1018.6
20190223104528 2 301 0.0 2.0 0.00 0.00 0.00 87 1018.9
20190223103056 3 297 0.0 0.0 0.00 0.00 0.00 87 1019.1
20190223101512 4 306 0.0 2.0 0.00 0.00 0.00 87 1019.6
20190223100007 5 260 0.0 0.0 0.00 0.00 0.00 87 1020.0
20190223094502 6 278 0.0 0.0 0.00 0.00 0.00 88 1019.8
20190223091638 7 288 0.0 0.0 0.00 0.00 0.00 88 1020.1
20190223090152 7 289 0.0 0.0 0.00 0.00 0.00 89 1020.0
20190223084704 8 289 0.0 0.0 0.00 0.00 0.00 89 1019.7
20190223083208 8 288 0.0 1.0 0.00 0.00 0.00 89 1019.9
20190223081638 8 323 0.0 0.0 0.00 0.00 0.00 89 1020.1
20190223080234 7 323 0.0 0.0 0.00 0.00 0.00 89 1020.0
20190223074631 7 323 0.0 0.0 0.00 0.00 0.00 89 1020.3
20190223073142 8 321 0.0 0.0 0.00 0.00 0.00 89 1020.0
20190223071612 7 321 0.0 0.0 0.00 0.00 0.00 89 1020.0
20190223070110 8 323 0.0 0.0 0.00 0.00 0.00 89 1020.1
20190223064612 8 323 0.0 0.0 0.00 0.00 0.00 89 1020.1
20190223063249 9 347 0.0 0.0 0.00 0.00 0.00 89 1019.7
20190223061718 9 307 0.0 0.0 0.00 0.00 0.00 90 1019.8
20190223060130 9 303 0.0 0.0 0.00 0.00 0.00 90 1019.8
20190223054654 9 303 0.0 0.0 0.00 0.00 0.00 90 1020.3
20190223053152 9 303 0.0 1.0 0.00 0.00 0.00 90 1020.3
20190223051556 10 92 0.0 0.0 0.00 0.00 0.00 89 1020.4
20190223050129 11 92 0.0 0.0 0.00 0.00 0.00 90 1020.2
20190223044640 11 92 0.0 0.0 0.00 0.00 0.00 90 1020.1
20190223043140 12 86 0.0 1.0 0.00 0.00 0.00 91 1020.1
20190223041631 13 84 0.0 0.0 0.00 0.00 0.00 91 1020.1
20190223040113 13 79 0.0 0.0 0.00 0.00 0.00 91 1020.3
20190223034603 13 79 0.0 0.0 0.00 0.00 0.00 90 1020.3
20190223033127 14 68 0.0 1.0 0.00 0.00 0.00 90 1020.5
20190223031627 14 97 0.0 1.0 0.00 0.00 0.00 90 1020.4
20190223030108 14 94 1.0 5.0 0.00 0.00 0.00 90 1020.6
20190223024550 14 82 0.0 2.0 0.00 0.00 0.00 90 1020.6
20190223023127 14 84 0.0 3.0 0.00 0.00 0.00 90 1020.8
20190223021603 14 75 1.0 4.0 0.00 0.00 0.00 90 1020.8
20190223020140 14 97 2.0 4.0 0.00 0.00 0.00 90 1021.1
20190223014616 14 76 3.0 5.0 0.00 0.00 0.00 89 1020.8
20190223013103 15 96 1.0 4.0 0.00 0.00 0.00 89 1020.9
20190223011545 15 108 4.0 7.0 0.00 0.00 0.00 89 1020.6
20190223010105 15 68 1.0 6.0 0.00 0.00 0.00 88 1020.7
20190223004546 16 99 2.0 5.0 0.00 0.00 0.00 89 1020.7
20190223003122 16 97 1.0 4.0 0.00 0.00 0.00 89 1020.7
20190223001617 16 67 1.0 4.0 0.00 0.00 0.00 88 1021.1
20190223000100 16 75 1.0 4.0 0.00 0.00 0.00 88 1021.2
20190222234638 16 98 1.0 4.0 0.00 0.00 0.00 87 1021.1
20190222233123 16 49 0.0 3.0 0.00 0.00 0.00 87 1021.1
20190222231539 16 89 2.0 4.0 0.00 0.00 0.00 86 1020.9
20190222230054 16 91 1.0 4.0 0.00 0.00 0.00 86 1020.8
20190222224533 16 78 1.0 4.0 0.00 0.00 0.00 86 1020.9
20190222223132 16 105 0.0 4.0 0.00 0.00 0.00 85 1021.2
20190222221549 16 139 1.0 6.0 0.00 0.00 0.00 86 1020.9
20190222220047 16 129 4.0 7.0 0.00 0.00 0.00 85 1021.3
20190222214611 16 115 2.0 6.0 0.00 0.00 0.00 86 1021.0
20190222213030 15 136 4.0 8.0 0.00 0.00 0.00 86 1021.1
20190222211538 15 122 4.0 8.0 0.00 0.00 0.00 85 1021.1
20190222210029 15 113 6.0 11.0 0.00 0.00 0.00 86 1021.0
20190222204517 15 108 8.0 12.0 0.00 0.00 0.00 85 1021.2
20190222203056 15 91 8.0 12.0 0.00 0.00 0.00 85 1021.6
20190222201511 15 79 5.0 10.0 0.00 0.00 0.00 86 1021.9
20190222200015 15 89 7.0 10.0 0.00 0.00 0.00 85 1022.1
20190222194521 15 105 4.0 9.0 0.00 0.00 0.00 85 1022.4
20190222193006 15 80 5.0 7.0 0.00 0.00 0.00 83 1022.6
20190222191710 15 112 3.0 6.0 0.00 0.00 0.00 83 1023.0
20190222190248 15 117 4.0 7.0 0.00 0.00 0.00 84 1023.3
20190222184636 15 108 3.0 7.0 0.00 0.00 0.00 84 1023.6
20190222183158 15 143 4.0 7.0 0.00 0.00 0.00 83 1023.9
20190222180126 14 129 3.0 7.0 0.00 0.00 0.00 84 1024.7
20190222174633 14 88 4.0 8.0 0.00 0.00 0.00 84 1024.5
20190222173146 13 101 5.0 8.0 0.00 0.00 0.00 83 1024.4
20190222171826 14 98 2.0 6.0 0.00 0.00 0.00 84 1024.6
20190222170104 13 84 3.0 7.0 0.00 0.00 0.00 84 1025.0
20190222164614 13 140 2.0 5.0 0.00 0.00 0.00 84 1025.3
20190222161625 13 107 1.0 5.0 0.00 0.00 0.00 85 1025.6
20190222160054 12 143 2.0 4.0 0.00 0.00 0.00 86 1025.7
20190222154613 11 103 4.0 6.0 0.00 0.00 0.00 86 1025.5